Duckwater, Nevada Weather observations

Data are for 10 minute period ending at time listed.
 Day   Time   Solar   Ave.   Ave.  Ave.  Vector  Max.   Baro.   Total    
  of    of     Rad.   Air    Rel.  Wind   Wind   Wind  Press.  Precip.   
Year   Day            Temp.  Hum.  Speed  Dir.   Gust                    
2016   (PST)   w/m2    F      %     mph   deg.    mph    mb.     in.    
-----------------------------------------------------------------------
 177   13:10    976   85.5    10    4.5    54    11.4   836.7   0.00  
 177   13:20    962   85.4    10    6.0    39    11.7   836.6   0.00  
 177   13:30    947   85.4    10    5.9    42    12.5   836.5   0.00  
 177   13:40    932   85.9    10    5.0    55    14.0   836.5   0.00  
 177   13:50    915   86.2     9    4.0   248    10.3   836.3   0.00  
 177   14:00    896   89.2     9    3.8   164     6.5   836.2   0.00  
 177   14:10    876   88.2    10    4.2   323     7.6   836.1   0.00  
 177   14:20    856   88.0    10    4.9   351     8.3   836.0   0.00  
 177   14:30    832   87.3     9    5.2    50    13.5   835.9   0.00  
 177   14:40    808   88.8     9    5.0    87     9.9   835.8   0.00  
 177   14:50    783   90.3     8    2.3   137     4.9   835.7   0.00  
 177   15:00    757   90.0     9    2.7   349     6.0   835.5   0.00  
 177   15:10    730   89.6     9    3.0   307     6.1   835.5   0.00  
 177   15:20    700   89.2     9    4.0   220     6.9   835.4   0.00  
 177   15:30    670   90.7     9    3.4   219     6.1   835.3   0.00  
 177   15:40    640   89.7     9    5.3   200     8.2   835.3   0.00  
 177   15:50    611   90.1     9    3.3   230     6.1   835.3   0.00  
 177   16:00    579   89.0     9    3.3   230     6.4   835.1   0.00  
 177   16:10    547   90.6     8    3.2   206     7.2   835.1   0.00  
 177   16:20    515   89.9     9    3.3   258     6.9   835.0   0.00  
 177   16:30    481   90.8     8    4.1   168     8.6   834.8   0.00  
 177   16:40    449   91.5     8    2.2    64     5.6   834.8   0.00  
 177   16:50    414   91.6     9    2.2   270     5.0   834.7   0.00  
 177   17:00    380   90.1     9    3.9   194     7.2   834.7   0.00  
 177   17:10    346   90.0     9    4.3   112     9.9   834.6   0.00  
 177   17:20    312   90.1     9    6.0   143    10.7   834.7   0.00  
 177   17:30    278   89.6     9    7.7   169    11.6   834.6   0.00  
 177   17:40    245   89.7     9    6.5   170     9.6   834.5   0.00  
 177   17:50    215   89.1     9    6.4   150    10.8   834.5   0.00  
 177   18:00    183   89.0     9    5.9   172     8.3   834.5   0.00  
 177   18:10    154   89.1     9    4.3   169     6.9   834.6   0.00  
 177   18:20    125   88.3    10    5.1   184     8.2   834.6   0.00  
 177   18:30     93   87.3    10    4.9   180     6.8   834.6   0.00  
 177   18:40     61   87.1    10    3.2   175     4.6   834.7   0.00  
 177   18:50     35   86.5    10    2.8   169     3.9   834.7   0.00  
 177   19:00     13   84.3    11    1.7   188     3.0   834.8   0.00  
 177   19:10      8   81.4    12    0.8   289     1.5   834.8   0.00  
 177   19:20      4   79.0    13    1.9    16     2.8   834.8   0.00  
 177   19:30      1   76.7    14    4.3     2     7.7   834.9   0.00  
 177   19:40      0   77.1    14    6.0     6     8.9   835.0   0.00  
 177   19:50      0   77.1    13    6.6   357    10.6   835.1   0.00  
 177   20:00      0   77.1    13    7.4   351     9.8   835.2   0.00  
 177   20:10      0   74.0    15    7.0   350     9.6   835.3   0.00  
 177   20:20      0   72.4    16    7.5   348    10.3   835.3   0.00  
 177   20:30      0   71.7    16    5.8   339     8.8   835.4   0.00  
 177   20:40      0   71.4    17    7.7   337    12.8   835.5   0.00  
 177   20:50      0   72.0    16    9.3   339    13.7   835.6   0.00  
 177   21:00      0   69.9    18    7.5   346    10.7   835.7   0.00  
 177   21:10      0   69.3    18    8.6   343    13.3   835.8   0.00  
 177   21:20      0   68.7    19    8.4   349    11.7   835.9   0.00  
 177   21:30      0   68.6    19    9.5   350    13.5   836.0   0.00  
 177   21:40      0   68.0    19    9.3   350    13.1   836.0   0.00  
 177   21:50      0   68.6    19    9.3   355    14.0   836.1   0.00  
 177   22:00      0   68.3    19    9.8   351    13.5   836.1   0.00  
 177   22:10      0   68.0    19   10.2   349    14.5   836.2   0.00  
 177   22:20      0   67.4    19   10.1   346    14.2   836.2   0.00  
 177   22:30      0   66.1    20   10.2   348    15.7   836.3   0.00  
 177   22:40      0   66.3    20   10.2   347    15.1   836.4   0.00  
 177   22:50      0   67.2    19   10.2   341    15.1   836.5   0.00  
 177   23:00      0   67.5    19   10.8   347    14.6   836.5   0.00  
 177   23:10      0   66.3    19   10.0   346    14.9   836.4   0.00  
 177   23:20      0   65.3    20    9.4   351    12.8   836.4   0.00  
 177   23:30      0   64.4    20   10.1   350    13.2   836.4   0.00  
 177   23:40      0   64.0    21    9.6   349    14.5   836.4   0.00  
 177   23:50      0   63.7    21    8.1   355    12.5   836.5   0.00  
 178    0:00      0   63.9    21    6.1     4    10.2   836.7   0.00  
 178    0:10      0   63.7    22    6.6     4    10.3   836.7   0.00  
 178    0:20      0   63.7    22    6.9   360    11.3   836.7   0.00  
 178    0:30      0   63.4    22    8.8   360    14.5   836.6   0.00  
 178    0:40      0   63.3    22    9.3   355    13.6   836.6   0.00  
 178    0:50      0   62.6    22    9.1   350    12.5   836.7   0.00  
 178    1:00      0   62.8    23    7.5   354    11.8   836.7   0.00  
 178    1:10      0   62.4    23    8.2   351    12.7   836.7   0.00  
 178    1:20      0   61.1    24    7.2   347    10.4   836.8   0.00  
 178    1:30      0   61.1    24    5.0   345     7.5   837.0   0.00  
 178    1:40      0   61.0    24    6.0   355    10.4   837.1   0.00  
 178    1:50      0   61.5    24    7.7     1    11.3   837.0   0.00  
 178    2:00      0   61.9    24    8.3   359    13.0   837.1   0.00  
 178    2:10      0   62.5    23    8.0     7    13.2   837.0   0.00  
 178    2:20      0   62.5    23    5.9    12    10.3   837.2   0.00  
 178    2:30      0   60.8    25    4.7   344     6.4   837.2   0.00  
 178    2:40      0   57.3    30    4.6   301     6.4   837.4   0.00  
 178    2:50      0   56.2    30    4.7   345     8.8   837.4   0.00  
 178    3:00      0   59.3    26    6.8   333    11.5   837.4   0.00  
 178    3:10      0   56.6    31    6.7   303     9.7   837.5   0.00  
 178    3:20      0   53.9    34    4.1   290     8.0   837.7   0.00  
 178    3:30      0   54.8    32    6.1   322     9.1   837.7   0.00  
 178    3:40      0   58.2    28    7.2   355    11.3   837.7   0.00  
 178    3:50      0   59.4    27    7.3   353    11.5   837.8   0.00  
 178    4:00      0   58.6    28    6.2   342     9.9   837.9   0.00  
 178    4:10      1   59.8    27    6.4   354    11.4   837.9   0.00  
 178    4:20      4   60.8    26    8.6   353    13.4   837.9   0.00  
 178    4:30      6   61.2    26    7.0   357    12.2   837.9   0.00  
 178    4:40      8   61.7    26    5.2     4    10.2   838.0   0.00  
 178    4:50     20   59.9    28    2.5   319     6.5   838.1   0.00  
 178    5:00     62   59.5    29    3.4   264     6.9   838.3   0.00  
 178    5:10     96   57.0    33    4.4   252     8.3   838.4   0.00  
 178    5:20    126   58.6    31    3.5   295     6.2   838.4   0.00  
 178    5:30    155   58.5    34    4.3   288     6.6   838.5   0.00  
 178    5:40    186   60.3    32    3.2   321     5.0   838.5   0.00  
 178    5:50    217   63.3    27    4.9   332     8.2   838.5   0.00  
 178    6:00    249   65.1    25    4.2   339     7.2   838.6   0.00  
 178    6:10    282   66.8    24    4.7   335     8.5   838.6   0.00  
 178    6:20    315   68.2    23    6.4   341    10.4   838.6   0.00  
 178    6:30    349   69.4    22    6.0   350     9.6   838.7   0.00  
 178    6:40    383   70.6    21    7.0   336    10.9   838.8   0.00  
 178    6:50    416   71.6    20    6.5   338     9.6   838.9   0.00  
 178    7:00    448   72.7    20    6.3   338     9.9   838.9   0.00  
 178    7:10    481   73.5    19    6.4   337     9.1   838.9   0.00  
 178    7:20    513   74.7    18    6.2   347     9.3   838.9   0.00  
 178    7:30    546   76.1    18    5.2   346     8.2   838.9   0.00  
 178    7:40    577   77.3    18    4.5   344     7.0   838.9   0.00  
 178    7:50    609   78.7    16    3.2   353     5.8   838.9   0.00  
 178    8:00    639   79.7    14    3.3   299     5.6   838.8   0.00  
 178    8:10    669   79.6    14    3.5   290     5.7   838.8   0.00  
 178    8:20    697   79.6    14    3.9   270     7.2   838.7   0.00  
 178    8:30    725   80.0    14    4.0   240     6.1   838.7   0.00  
 178    8:40    753   80.5    14    3.7   223     6.1   838.6   0.00  
 178    8:50    779   81.8    14    3.5   209     6.9   838.6   0.00  
 178    9:00    803   82.3    14    4.3   200     8.7   838.5   0.00  
 178    9:10    827   82.6    13    5.4   198     9.6   838.4   0.00  
 178    9:20    850   83.6    12    5.6   200     9.8   838.4   0.00  
 178    9:30    871   84.8    12    4.7   178     9.1   838.4   0.00  
 178    9:40    891   87.3    11    3.6   161     7.6   838.4   0.00  
 178    9:50    909   86.6    12    3.6   181     7.7   838.3   0.00  
 178   10:00    925   86.9    11    4.5   152    10.6   838.2   0.00  
 178   10:10    941   88.1    11    5.2   149     8.2   838.1   0.00  
 178   10:20    952   88.7    10    5.3   154     9.7   838.1   0.00  
 178   10:30    962   88.6    11    5.9   174    10.9   838.0   0.00  
 178   10:40    970   89.4    10    5.8   138    12.0   837.9   0.00  
 178   10:50    981   90.3    10    7.3   168    13.5   837.8   0.00  
 178   11:00    989   89.9    10    6.1   146    12.2   837.7   0.00  
 178   11:10    994   90.8    10    8.3   147    16.1   837.6   0.00  
 178   11:20   1002   90.9    10    8.9   163    15.3   837.6   0.00  
 178   11:30   1006   91.7     9    9.4   159    14.0   837.6   0.00  
 178   11:40   1009   91.5     9    6.4   150    14.5   837.5   0.00  
 178   11:50   1007   92.5     9    5.6   168    10.7   837.5   0.00  
 178   12:00   1003   92.9     9    9.3   161    15.9   837.4   0.00  
 178   12:10   1002   93.3     8   10.2   158    17.9   837.3   0.00  
 178   12:20    998   92.7     9   11.6   138    23.0   837.2   0.00  
 178   12:30    995   92.1     9   11.9   210    18.3   837.2   0.00  
 178   12:40    989   93.4     8   10.6   153    19.7   837.2   0.00  
 178   12:50    984   93.6     8   10.5   151    19.9   837.1   0.00  
 178   13:00    976   93.7     8    8.3   207    17.0   837.1   0.00  

Return to Duckwater graphs page.


Western Regional Climate Center,wrcc@dri.edu